Time;durP1;ratioP1;P1;durP2;ratioP2;P2;SDS_P1;SDS_P2;PMS_P1;PMS_P2;Temp;Humidity;BMP_temperature;BMP_pressure;BME280_temperature;BME280_humidity;BME280_pressure;Samples;Min_cycle;Max_cycle;Signal;HPM_P1;HPM_P2
2021/10/11 00:00:58;;;;;;;;;;;;;;;14.38;51.57;101637.56;5092476;28;19935;-59
2021/10/11 00:03:25;;;;;;;;;;;;;;;14.41;51.63;101652.38;5092520;28;20014;-59
2021/10/11 00:05:52;;;;;;;;;;;;;;;14.44;51.48;101647.78;5092623;28;19978;-59
2021/10/11 00:08:18;;;;;;;;;;;;;;;14.46;51.50;101642.41;5092170;28;19928;-59
2021/10/11 00:10:45;;;;;;;;;;;;;;;14.46;51.63;101642.41;5091373;28;20296;-62
2021/10/11 00:13:11;;;;;;;;;;;;;;;14.48;51.60;101638.72;5092015;28;20399;-59
2021/10/11 00:15:38;;;;;;;;;;;;;;;14.50;51.34;101634.22;5092384;28;20120;-59
2021/10/11 00:18:05;;;;;;;;;;;;;;;14.53;51.47;101633.19;5079583;28;20792;-59
2021/10/11 00:20:32;;;;;;;;;;;;;;;14.52;51.38;101627.06;5091343;28;19928;-59
2021/10/11 00:22:59;;;;;;;;;;;;;;;14.49;51.60;101637.78;5092369;28;19928;-59
2021/10/11 00:25:25;;;;;;;;;;;;;;;14.47;51.74;101641.47;5092341;28;19924;-59
2021/10/11 00:27:52;;;;;;;;;;;;;;;14.46;51.76;101640.63;5090173;28;19928;-60
2021/10/11 00:30:18;;;;;;;;;;;;;;;14.32;51.86;101635.28;5092420;28;19978;-59
2021/10/11 00:32:47;;;;;;;;;;;;;;;14.36;51.94;101640.31;5091585;28;19924;-60
2021/10/11 00:35:13;;;;;;;;;;;;;;;14.40;51.87;101648.91;5092565;28;19924;-59
2021/10/11 00:37:40;;;;;;;;;;;;;;;14.41;51.88;101658.53;5078089;28;19924;-59
2021/10/11 00:40:07;;;;;;;;;;;;;;;14.43;51.64;101656.63;5092360;28;19924;-60
2021/10/11 00:42:34;;;;;;;;;;;;;;;14.45;51.95;101641.56;5092005;28;19924;-59
2021/10/11 00:45:00;;;;;;;;;;;;;;;14.46;52.03;101637.13;5087546;28;19982;-59
2021/10/11 00:47:27;;;;;;;;;;;;;;;14.44;52.13;101639.84;5092191;28;19933;-59
2021/10/11 00:49:53;;;;;;;;;;;;;;;14.45;52.07;101633.63;5092117;28;19925;-59
2021/10/11 00:52:20;;;;;;;;;;;;;;;14.45;52.16;101635.41;5092185;28;19932;-59
2021/10/11 00:54:47;;;;;;;;;;;;;;;14.46;52.12;101634.47;5092258;28;19924;-59
2021/10/11 00:57:13;;;;;;;;;;;;;;;14.46;51.91;101629.19;5092318;28;19989;-59
2021/10/11 00:59:41;;;;;;;;;;;;;;;14.47;51.95;101622.97;5092069;28;19924;-59
2021/10/11 01:02:08;;;;;;;;;;;;;;;14.47;51.88;101623.81;5091891;28;19928;-59
2021/10/11 01:04:34;;;;;;;;;;;;;;;14.46;52.12;101627.41;5092076;28;19924;-59
2021/10/11 01:07:01;;;;;;;;;;;;;;;14.46;52.06;101619.50;5091998;28;20398;-59
2021/10/11 01:09:27;;;;;;;;;;;;;;;14.47;52.16;101628.25;5091965;28;19939;-59
2021/10/11 01:11:54;;;;;;;;;;;;;;;14.44;52.27;101626.66;5094906;28;20015;-59
2021/10/11 01:14:20;;;;;;;;;;;;;;;14.44;52.28;101626.66;5095750;28;19950;-59
2021/10/11 01:16:47;;;;;;;;;;;;;;;14.46;52.17;101626.56;5081773;28;19924;-59
2021/10/11 01:19:14;;;;;;;;;;;;;;;14.44;52.22;101617.88;5095871;28;19928;-59
2021/10/11 01:21:40;;;;;;;;;;;;;;;14.46;52.51;101618.63;5095533;28;19924;-59
2021/10/11 01:24:07;;;;;;;;;;;;;;;14.43;52.31;101617.03;5095482;28;20264;-59
2021/10/11 01:26:40;;;;;;;;;;;;;;;14.44;52.58;101610.81;5095442;28;19924;-59
2021/10/11 01:29:08;;;;;;;;;;;;;;;14.39;52.55;101618.16;5085108;28;19930;-59
2021/10/11 01:31:35;;;;;;;;;;;;;;;14.40;52.71;101627.78;5095381;28;19928;-59
2021/10/11 01:34:02;;;;;;;;;;;;;;;14.41;52.63;101624.19;5095275;28;20394;-59
2021/10/11 01:36:28;;;;;;;;;;;;;;;14.45;52.69;101625.72;5095576;28;19924;-59
2021/10/11 01:38:56;;;;;;;;;;;;;;;14.49;52.55;101635.16;5095074;28;20455;-60
2021/10/11 01:41:22;;;;;;;;;;;;;;;14.48;52.62;101627.31;5095214;28;19924;-59
2021/10/11 01:43:49;;;;;;;;;;;;;;;14.47;52.63;101621.16;5094591;28;19924;-59
2021/10/11 01:46:16;;;;;;;;;;;;;;;14.46;52.31;101616.00;5094398;28;20384;-59
2021/10/11 01:48:42;;;;;;;;;;;;;;;14.49;52.30;101614.03;5095160;28;19924;-59
2021/10/11 01:51:09;;;;;;;;;;;;;;;14.48;52.32;101620.25;5094808;28;20385;-59
2021/10/11 01:53:36;;;;;;;;;;;;;;;14.49;52.27;101629.88;5095186;28;20291;-59
2021/10/11 01:56:02;;;;;;;;;;;;;;;14.48;52.42;101633.44;5094628;28;20296;-59
2021/10/11 01:58:29;;;;;;;;;;;;;;;14.49;52.21;101635.16;5094912;28;19924;-60
2021/10/11 02:00:56;;;;;;;;;;;;;;;14.52;52.17;101634.13;5093826;28;20384;-61
2021/10/11 02:03:23;;;;;;;;;;;;;;;14.51;51.81;101635.91;5082252;28;19925;-59
2021/10/11 02:05:49;;;;;;;;;;;;;;;14.54;51.63;101634.88;5094724;28;19930;-59
2021/10/11 02:08:16;;;;;;;;;;;;;;;14.56;51.78;101629.50;5094435;28;20330;-59
2021/10/11 02:10:43;;;;;;;;;;;;;;;14.43;52.18;101634.66;5094739;28;19924;-59
2021/10/11 02:13:09;;;;;;;;;;;;;;;14.43;52.22;101634.66;5094439;28;19928;-59
2021/10/11 02:15:36;;;;;;;;;;;;;;;14.46;52.23;101637.13;5094675;28;19931;-59
2021/10/11 02:18:03;;;;;;;;;;;;;;;14.48;51.91;101632.59;5085147;28;19930;-60
2021/10/11 02:20:30;;;;;;;;;;;;;;;14.49;51.75;101635.16;5093769;28;20019;-59
2021/10/11 02:22:57;;;;;;;;;;;;;;;14.51;51.94;101638.56;5094310;28;19947;-60
2021/10/11 02:25:23;;;;;;;;;;;;;;;14.52;51.77;101635.00;5094223;28;19932;-59
2021/10/11 02:27:50;;;;;;;;;;;;;;;14.53;51.60;101627.91;5094189;28;19928;-59
2021/10/11 02:30:16;;;;;;;;;;;;;;;14.49;51.75;101619.31;5094186;28;19928;-59
2021/10/11 02:32:43;;;;;;;;;;;;;;;14.46;51.88;101621.28;5094147;28;19924;-59
2021/10/11 02:35:10;;;;;;;;;;;;;;;14.48;51.98;101622.03;5093293;28;19924;-59
2021/10/11 02:37:36;;;;;;;;;;;;;;;14.49;51.90;101616.66;5094018;28;19924;-59
2021/10/11 02:40:04;;;;;;;;;;;;;;;14.45;52.12;101612.50;5082132;28;19928;-59
2021/10/11 02:42:30;;;;;;;;;;;;;;;14.44;52.17;101602.88;5091484;28;19928;-59
2021/10/11 02:44:57;;;;;;;;;;;;;;;14.34;52.51;101601.72;5094093;28;19931;-59
2021/10/11 02:47:23;;;;;;;;;;;;;;;14.34;52.72;101588.53;5093707;28;20376;-59
2021/10/11 02:49:50;;;;;;;;;;;;;;;14.30;52.72;101587.84;5093748;28;19935;-59
2021/10/11 02:52:16;;;;;;;;;;;;;;;14.29;52.72;101594.06;5093740;28;19924;-59
2021/10/11 02:54:43;;;;;;;;;;;;;;;14.36;52.74;101599.88;5093866;28;19924;-59
2021/10/11 02:57:10;;;;;;;;;;;;;;;14.39;52.72;101606.75;5089101;28;20276;-60
2021/10/11 02:59:36;;;;;;;;;;;;;;;14.39;52.37;101604.13;5092387;28;19931;-59
2021/10/11 03:02:03;;;;;;;;;;;;;;;14.33;52.40;101605.31;5092554;28;19924;-59
2021/10/11 03:04:29;;;;;;;;;;;;;;;14.37;52.49;101597.13;5089094;28;19932;-59
2021/10/11 03:06:56;;;;;;;;;;;;;;;14.40;52.41;101598.72;5089670;28;19928;-60
2021/10/11 03:09:22;;;;;;;;;;;;;;;14.42;52.32;101596.00;5089672;28;19928;-59
2021/10/11 03:11:49;;;;;;;;;;;;;;;14.43;52.15;101602.97;5090297;28;19928;-59
2021/10/11 03:14:16;;;;;;;;;;;;;;;14.43;52.18;101610.91;5090008;28;19924;-59
2021/10/11 03:16:42;;;;;;;;;;;;;;;14.42;52.32;101596.00;5088452;28;19950;-60
2021/10/11 03:19:09;;;;;;;;;;;;;;;14.41;52.33;101596.94;5077332;28;19925;-59
2021/10/11 03:21:35;;;;;;;;;;;;;;;14.41;52.34;101594.28;5090061;28;20388;-60
2021/10/11 03:24:02;;;;;;;;;;;;;;;14.37;52.36;101589.19;5089827;28;20269;-59
2021/10/11 03:26:28;;;;;;;;;;;;;;;14.36;52.33;101584.03;5089959;28;19924;-59
2021/10/11 03:28:55;;;;;;;;;;;;;;;14.38;52.38;101582.13;5089507;28;19931;-59
2021/10/11 03:31:22;;;;;;;;;;;;;;;14.32;52.81;101579.84;5089258;28;19925;-59
2021/10/11 03:33:48;;;;;;;;;;;;;;;14.31;52.68;101579.00;5088475;28;19969;-59
2021/10/11 03:36:15;;;;;;;;;;;;;;;14.33;52.66;101584.19;5089814;28;19924;-59
2021/10/11 03:38:41;;;;;;;;;;;;;;;14.31;52.88;101575.50;5089551;28;19928;-59
2021/10/11 03:41:08;;;;;;;;;;;;;;;14.34;52.90;101570.03;5089618;28;20449;-59
2021/10/11 03:43:34;;;;;;;;;;;;;;;14.30;53.00;101566.72;5089624;28;19931;-59
2021/10/11 03:46:01;;;;;;;;;;;;;;;14.30;52.78;101572.00;5089232;28;19954;-59
2021/10/11 03:48:27;;;;;;;;;;;;;;;14.19;53.25;101575.31;5086725;28;20421;-59
2021/10/11 03:50:54;;;;;;;;;;;;;;;14.24;53.07;101579.47;5089430;28;19942;-59
2021/10/11 03:53:21;;;;;;;;;;;;;;;14.23;53.22;101580.38;5089766;28;19981;-59
2021/10/11 03:55:47;;;;;;;;;;;;;;;14.14;53.38;101576.50;5089292;28;19930;-59
2021/10/11 03:58:14;;;;;;;;;;;;;;;14.13;53.75;101578.28;5089196;28;19935;-59
2021/10/11 04:00:40;;;;;;;;;;;;;;;14.08;53.79;101572.44;5089605;28;19924;-59
2021/10/11 04:03:08;;;;;;;;;;;;;;;14.06;53.84;101579.59;5088884;28;20352;-59
2021/10/11 04:05:35;;;;;;;;;;;;;;;13.98;54.26;101579.16;5088849;28;19924;-59
2021/10/11 04:08:10;;;;;;;;;;;;;;;13.95;54.28;101580.19;5089155;28;20334;-59
2021/10/11 04:10:43;;;;;;;;;;;;;;;13.91;54.59;101568.13;5089212;28;19928;-59
2021/10/11 04:13:10;;;;;;;;;;;;;;;13.90;54.56;101576.97;5089166;28;19924;-59
2021/10/11 04:15:36;;;;;;;;;;;;;;;13.76;55.15;101574.28;5089192;28;19935;-59
2021/10/11 04:18:03;;;;;;;;;;;;;;;13.67;55.33;101573.00;5076524;28;19924;-59
2021/10/11 04:20:30;;;;;;;;;;;;;;;13.66;55.37;101577.44;5087628;28;19923;-59
2021/10/11 04:22:56;;;;;;;;;;;;;;;13.62;55.35;101580.31;5088422;28;19932;-59
2021/10/11 04:25:23;;;;;;;;;;;;;;;13.65;55.37;101581.00;5089027;28;19932;-59
2021/10/11 04:27:49;;;;;;;;;;;;;;;13.66;55.48;101576.56;5089055;28;19934;-60
2021/10/11 04:30:16;;;;;;;;;;;;;;;13.65;55.42;101570.47;5089352;28;20006;-59
2021/10/11 04:32:42;;;;;;;;;;;;;;;13.65;55.31;101578.38;5088868;28;19948;-59
2021/10/11 04:35:09;;;;;;;;;;;;;;;13.64;55.57;101576.66;5088824;28;20453;-59
2021/10/11 04:37:38;;;;;;;;;;;;;;;13.60;55.60;101579.56;5088865;28;19928;-59
2021/10/11 04:40:05;;;;;;;;;;;;;;;13.49;55.67;101574.91;5088957;28;19928;-59
2021/10/11 04:42:31;;;;;;;;;;;;;;;13.38;56.34;101573.72;5087533;28;19932;-59
2021/10/11 04:44:58;;;;;;;;;;;;;;;13.46;56.08;101580.31;5091462;28;19924;-59
2021/10/11 04:47:24;;;;;;;;;;;;;;;13.45;55.82;101574.22;5092902;28;19982;-59
2021/10/11 04:49:51;;;;;;;;;;;;;;;13.47;56.08;101576.75;5093005;28;19932;-60
2021/10/11 04:52:17;;;;;;;;;;;;;;;13.52;55.67;101580.84;5092834;28;19981;-59
2021/10/11 04:54:44;;;;;;;;;;;;;;;13.51;55.89;101573.88;5093058;28;19931;-59
2021/10/11 04:57:10;;;;;;;;;;;;;;;13.48;55.86;101581.94;5092534;28;19932;-59
2021/10/11 04:59:37;;;;;;;;;;;;;;;13.53;55.67;101574.66;5084220;28;20387;-60
2021/10/11 05:02:03;;;;;;;;;;;;;;;13.56;55.44;101571.00;5092794;28;19924;-60
2021/10/11 05:04:30;;;;;;;;;;;;;;;13.54;55.52;101583.41;5091377;28;19932;-60
2021/10/11 05:06:56;;;;;;;;;;;;;;;13.56;55.41;101578.91;5092539;28;20406;-60
2021/10/11 05:09:23;;;;;;;;;;;;;;;13.54;55.48;101576.31;5092261;28;19931;-60
2021/10/11 05:11:50;;;;;;;;;;;;;;;13.54;55.53;101572.84;5092464;28;19932;-60
2021/10/11 05:14:16;;;;;;;;;;;;;;;13.54;55.49;101586.88;5092158;28;19931;-61
2021/10/11 05:16:43;;;;;;;;;;;;;;;13.54;55.28;101586.03;5087359;28;20323;-60
2021/10/11 05:19:10;;;;;;;;;;;;;;;13.52;55.53;101579.97;5079662;28;20387;-60
2021/10/11 05:21:37;;;;;;;;;;;;;;;13.52;55.41;101577.34;5092226;28;19931;-61
2021/10/11 05:24:03;;;;;;;;;;;;;;;13.48;55.47;101576.66;5092262;28;19925;-61
2021/10/11 05:26:31;;;;;;;;;;;;;;;13.48;55.46;101584.56;5092164;28;19924;-60
2021/10/11 05:29:03;;;;;;;;;;;;;;;13.48;55.56;101581.94;5091045;28;19940;-60
2021/10/11 05:31:32;;;;;;;;;;;;;;;13.50;55.69;101579.25;5091256;28;19935;-61
2021/10/11 05:33:59;;;;;;;;;;;;;;;13.50;55.52;101587.97;5091823;28;19990;-60
2021/10/11 05:36:27;;;;;;;;;;;;;;;13.52;55.61;101590.53;5091455;28;19928;-60
2021/10/11 05:38:53;;;;;;;;;;;;;;;13.54;55.54;101599.22;5091650;28;19924;-61
2021/10/11 05:41:20;;;;;;;;;;;;;;;13.54;55.48;101592.16;5092130;28;19924;-61
2021/10/11 05:43:47;;;;;;;;;;;;;;;13.52;55.79;101598.44;5091235;28;19931;-60
2021/10/11 05:46:13;;;;;;;;;;;;;;;13.55;55.63;101603.56;5091893;28;19924;-61
2021/10/11 05:48:40;;;;;;;;;;;;;;;13.55;55.65;101608.84;5091842;28;19993;-60
2021/10/11 05:51:06;;;;;;;;;;;;;;;13.71;56.58;101612.31;5091487;28;19931;-59
2021/10/11 05:53:33;;;;;;;;;;;;;;;13.73;55.96;101611.41;5091967;28;19934;-60
2021/10/11 05:55:59;;;;;;;;;;;;;;;13.63;55.70;101611.03;5090482;28;19977;-60
2021/10/11 05:58:26;;;;;;;;;;;;;;;13.57;55.99;101628.03;5091759;28;19973;-60
2021/10/11 06:00:52;;;;;;;;;;;;;;;13.52;56.19;101624.81;5090448;28;19924;-60
2021/10/11 06:03:19;;;;;;;;;;;;;;;13.58;56.01;101627.13;5091682;28;20260;-60
2021/10/11 06:05:45;;;;;;;;;;;;;;;13.64;56.08;101636.50;5091244;28;19978;-61
2021/10/11 06:08:12;;;;;;;;;;;;;;;13.67;55.85;101634.50;5091017;28;19924;-60
2021/10/11 06:10:38;;;;;;;;;;;;;;;13.68;55.93;101635.38;5091040;28;19924;-60
2021/10/11 06:13:05;;;;;;;;;;;;;;;13.72;55.88;101634.25;5090819;28;19928;-60
2021/10/11 06:15:32;;;;;;;;;;;;;;;13.69;55.97;101631.81;5091572;28;19928;-60
2021/10/11 06:17:58;;;;;;;;;;;;;;;13.70;56.05;101642.25;5079161;28;19925;-60
2021/10/11 06:20:25;;;;;;;;;;;;;;;13.73;56.08;101649.16;5089010;28;19928;-60
2021/10/11 06:22:51;;;;;;;;;;;;;;;13.70;55.96;101650.19;5090949;28;20056;-60
2021/10/11 06:25:18;;;;;;;;;;;;;;;13.67;56.29;101658.25;5089856;28;19928;-61
2021/10/11 06:27:44;;;;;;;;;;;;;;;13.60;56.60;101650.75;5090029;28;19931;-60
2021/10/11 06:30:11;;;;;;;;;;;;;;;13.63;56.38;101650.59;5090771;28;19928;-60
2021/10/11 06:32:38;;;;;;;;;;;;;;;13.61;56.73;101655.09;5090777;28;19938;-60
2021/10/11 06:35:05;;;;;;;;;;;;;;;13.53;56.90;101659.03;5090642;28;20051;-60
2021/10/11 06:37:31;;;;;;;;;;;;;;;13.57;56.85;101662.31;5089704;28;19928;-60
2021/10/11 06:39:58;;;;;;;;;;;;;;;13.57;56.96;101664.97;5090437;28;19931;-60
2021/10/11 06:42:24;;;;;;;;;;;;;;;13.65;56.84;101667.19;5088061;28;19928;-61
2021/10/11 06:44:52;;;;;;;;;;;;;;;13.67;56.68;101662.69;5089956;28;19928;-64
2021/10/11 06:47:19;;;;;;;;;;;;;;;13.66;56.76;101672.41;5089746;28;19931;-61
2021/10/11 06:49:48;;;;;;;;;;;;;;;13.80;56.61;101676.03;5090116;28;19946;-64
2021/10/11 06:52:17;;;;;;;;;;;;;;;13.90;56.46;101676.38;5076449;28;19982;-64
2021/10/11 06:54:45;;;;;;;;;;;;;;;14.10;55.96;101676.13;5090275;28;20292;-63
2021/10/11 06:57:13;;;;;;;;;;;;;;;14.31;55.53;101675.81;5089827;28;19927;-60
2021/10/11 06:59:41;;;;;;;;;;;;;;;14.48;54.95;101682.78;5089769;28;19935;-60
2021/10/11 07:02:08;;;;;;;;;;;;;;;14.61;54.82;101690.84;5089788;28;19924;-60
2021/10/11 07:04:40;;;;;;;;;;;;;;;14.79;54.14;101681.00;5089863;28;19978;-59
2021/10/11 07:07:07;;;;;;;;;;;;;;;14.99;53.80;101682.47;5089498;28;19928;-60
2021/10/11 07:09:34;;;;;;;;;;;;;;;15.04;53.75;101692.75;5086613;28;19974;-60
2021/10/11 07:12:00;;;;;;;;;;;;;;;15.11;53.63;101691.44;5089350;28;19928;-59
2021/10/11 07:14:27;;;;;;;;;;;;;;;15.33;53.41;101686.53;5089443;28;19924;-59
2021/10/11 07:16:53;;;;;;;;;;;;;;;15.46;53.28;101685.78;5086554;28;19932;-59
2021/10/11 07:19:20;;;;;;;;;;;;;;;15.52;53.00;101693.34;5078584;28;19924;-59
2021/10/11 07:21:46;;;;;;;;;;;;;;;15.59;52.97;101696.44;5089372;28;19933;-59
2021/10/11 07:24:15;;;;;;;;;;;;;;;15.68;53.02;101694.06;5089353;28;19924;-59
2021/10/11 07:26:42;;;;;;;;;;;;;;;15.71;52.79;101697.47;5089200;28;19924;-59
2021/10/11 07:29:08;;;;;;;;;;;;;;;15.76;53.09;101711.28;5088934;28;19924;-59
2021/10/11 07:31:35;;;;;;;;;;;;;;;15.75;53.08;101714.84;5088556;28;20092;-60
2021/10/11 07:34:01;;;;;;;;;;;;;;;15.89;52.49;101714.84;5087279;28;20299;-59
2021/10/11 07:36:28;;;;;;;;;;;;;;;16.02;52.19;101719.38;5089421;28;20323;-59
2021/10/11 07:38:55;;;;;;;;;;;;;;;16.16;51.97;101725.50;5088940;28;19947;-60
2021/10/11 07:41:21;;;;;;;;;;;;;;;16.18;52.20;101730.69;5089315;28;19924;-59
2021/10/11 07:43:48;;;;;;;;;;;;;;;16.22;52.30;101728.69;5088761;28;19928;-59
2021/10/11 07:46:15;;;;;;;;;;;;;;;16.35;51.48;101721.63;5089051;28;19924;-59
2021/10/11 07:48:41;;;;;;;;;;;;;;;16.58;51.26;101721.91;5086968;28;20011;-59
2021/10/11 07:51:08;;;;;;;;;;;;;;;16.71;50.74;101717.50;5086450;28;19935;-60
2021/10/11 07:53:35;;;;;;;;;;;;;;;16.84;50.19;101711.38;5088727;28;19978;-59
2021/10/11 07:56:01;;;;;;;;;;;;;;;16.96;50.10;101721.16;5089163;28;19935;-60
2021/10/11 07:58:28;;;;;;;;;;;;;;;16.97;50.32;101721.03;5089093;28;19924;-60
2021/10/11 08:00:54;;;;;;;;;;;;;;;17.18;49.54;101714.38;5088598;28;19951;-60
2021/10/11 08:03:25;;;;;;;;;;;;;;;17.23;49.44;101710.47;5088668;28;19959;-60
2021/10/11 08:05:52;;;;;;;;;;;;;;;17.37;49.21;101709.50;5087746;28;20018;-59
2021/10/11 08:08:18;;;;;;;;;;;;;;;17.57;48.97;101710.75;5088256;28;19924;-58
2021/10/11 08:10:46;;;;;;;;;;;;;;;17.70;48.74;101709.88;5087698;28;19930;-59
2021/10/11 08:13:13;;;;;;;;;;;;;;;17.73;48.56;101713.16;5087520;28;20387;-58
2021/10/11 08:15:40;;;;;;;;;;;;;;;17.94;48.11;101715.25;5088613;28;19947;-59
2021/10/11 08:18:11;;;;;;;;;;;;;;;18.17;47.82;101726.00;5087696;28;21617;-59
2021/10/11 08:20:38;;;;;;;;;;;;;;;18.29;47.19;101719.78;5094930;28;20403;-59
2021/10/11 08:23:04;;;;;;;;;;;;;;;18.25;47.25;101721.00;5094503;28;19928;-59
2021/10/11 08:25:31;;;;;;;;;;;;;;;18.51;47.07;101728.81;5095610;28;19924;-60
2021/10/11 08:27:57;;;;;;;;;;;;;;;18.61;46.51;101724.50;5094307;28;20517;-59
2021/10/11 08:30:24;;;;;;;;;;;;;;;18.75;46.38;101719.03;5095370;28;19932;-59
2021/10/11 08:32:50;;;;;;;;;;;;;;;18.82;46.18;101721.22;5095020;28;20245;-59
2021/10/11 08:35:17;;;;;;;;;;;;;;;19.00;46.02;101718.97;5094453;28;19928;-59
2021/10/11 08:37:44;;;;;;;;;;;;;;;19.15;45.55;101719.63;5095413;28;19932;-59
2021/10/11 08:40:10;;;;;;;;;;;;;;;19.25;45.61;101724.09;5094266;28;19924;-59
2021/10/11 08:42:38;;;;;;;;;;;;;;;19.52;44.81;101714.91;5082586;28;20406;-58
2021/10/11 08:45:05;;;;;;;;;;;;;;;19.78;44.61;101719.94;5085795;28;19928;-59
2021/10/11 08:47:32;;;;;;;;;;;;;;;19.90;44.41;101711.00;5095238;28;19970;-59
2021/10/11 08:49:59;;;;;;;;;;;;;;;19.95;43.81;101718.63;5095375;28;19924;-59
2021/10/11 08:52:25;;;;;;;;;;;;;;;20.11;43.71;101707.56;5095172;28;19993;-59
2021/10/11 08:54:53;;;;;;;;;;;;;;;20.22;43.71;101710.19;5091564;28;20299;-59
2021/10/11 08:57:24;;;;;;;;;;;;;;;20.30;43.11;101703.38;5095170;28;19935;-59
2021/10/11 08:59:51;;;;;;;;;;;;;;;20.41;43.05;101708.66;5094541;28;19924;-59
2021/10/11 09:02:20;;;;;;;;;;;;;;;20.63;42.84;101699.72;5095189;28;19954;-59
2021/10/11 09:04:49;;;;;;;;;;;;;;;20.84;42.20;101699.75;5094751;28;19924;-60
2021/10/11 09:07:15;;;;;;;;;;;;;;;20.94;42.30;101705.16;5094995;28;20403;-59
2021/10/11 09:09:48;;;;;;;;;;;;;;;21.19;41.46;101690.53;5094512;28;19924;-60
2021/10/11 09:12:16;;;;;;;;;;;;;;;21.37;41.24;101700.59;5094185;28;20292;-61
2021/10/11 09:14:46;;;;;;;;;;;;;;;21.54;41.10;101704.44;5094643;28;19932;-60
2021/10/11 09:17:24;;;;;;;;;;;;;;;21.62;40.81;101709.13;5085270;28;19924;-60
2021/10/11 09:19:58;;;;;;;;;;;;;;;21.77;40.35;101712.28;5088399;28;19969;-60
2021/10/11 09:22:31;;;;;;;;;;;;;;;21.90;39.96;101712.84;5095170;28;19927;-60
2021/10/11 09:24:58;;;;;;;;;;;;;;;22.04;39.98;101716.13;5094888;28;19954;-60
2021/10/11 09:27:25;;;;;;;;;;;;;;;22.21;39.48;101711.91;5094136;28;19946;-60
2021/10/11 09:29:52;;;;;;;;;;;;;;;22.32;39.42;101715.31;5092764;28;19924;-60
2021/10/11 09:32:18;;;;;;;;;;;;;;;22.32;39.48;101722.47;5091089;28;19924;-60
2021/10/11 09:34:45;;;;;;;;;;;;;;;22.37;39.75;101714.91;5084551;28;19985;-60
2021/10/11 09:37:15;;;;;;;;;;;;;;;22.57;39.18;101717.56;5091699;28;19997;-60
2021/10/11 09:39:42;;;;;;;;;;;;;;;22.53;39.54;101711.66;5091983;28;19924;-60
2021/10/11 09:42:13;;;;;;;;;;;;;;;22.70;39.20;101715.44;5090575;28;19928;-60
2021/10/11 09:44:50;;;;;;;;;;;;;;;22.92;38.81;101708.06;5091725;28;19931;-59
2021/10/11 09:47:29;;;;;;;;;;;;;;;23.13;38.05;101702.53;5091609;28;19935;-60
2021/10/11 09:49:56;;;;;;;;;;;;;;;23.15;38.30;101700.59;5085934;28;19924;-60
2021/10/11 09:52:23;;;;;;;;;;;;;;;23.29;37.90;101694.75;5091354;28;19931;-60
2021/10/11 09:54:50;;;;;;;;;;;;;;;23.41;37.66;101692.69;5091245;28;19935;-60
2021/10/11 09:57:17;;;;;;;;;;;;;;;23.42;37.62;101694.41;5090998;28;19931;-60
2021/10/11 09:59:44;;;;;;;;;;;;;;;23.59;36.94;101686.56;5091146;28;20399;-61
2021/10/11 10:02:11;;;;;;;;;;;;;;;23.68;37.11;101692.84;5091489;28;19993;-60
2021/10/11 10:04:39;;;;;;;;;;;;;;;23.79;36.82;101690.81;5090318;28;19924;-60
2021/10/11 10:07:07;;;;;;;;;;;;;;;23.93;36.28;101685.97;5090740;28;20413;-60
2021/10/11 10:09:37;;;;;;;;;;;;;;;24.03;36.32;101683.22;5090763;28;20315;-60
2021/10/11 10:12:05;;;;;;;;;;;;;;;24.07;36.05;101679.22;5089499;28;19940;-62
2021/10/11 10:14:33;;;;;;;;;;;;;;;24.16;35.69;101685.50;5090693;28;19974;-60
2021/10/11 10:17:00;;;;;;;;;;;;;;;24.25;35.65;101682.75;5076254;28;19931;-65
2021/10/11 10:19:34;;;;;;;;;;;;;;;24.36;35.00;101668.25;5080724;28;20040;-62
2021/10/11 10:22:14;;;;;;;;;;;;;;;24.37;35.22;101666.41;5090811;28;19928;-62
2021/10/11 10:24:41;;;;;;;;;;;;;;;24.38;34.91;101660.88;5090930;28;20239;-62
2021/10/11 10:27:09;;;;;;;;;;;;;;;24.48;34.82;101663.50;5090156;28;19930;-62
2021/10/11 10:29:45;;;;;;;;;;;;;;;24.48;34.94;101659.94;5079928;28;20402;-61
2021/10/11 10:32:12;;;;;;;;;;;;;;;24.53;34.66;101653.13;5087347;28;19938;-62
2021/10/11 10:34:39;;;;;;;;;;;;;;;24.67;34.53;101646.38;5090730;28;19928;-62
2021/10/11 10:37:08;;;;;;;;;;;;;;;24.69;34.51;101639.00;5090411;28;19932;-62
2021/10/11 10:39:46;;;;;;;;;;;;;;;25.00;33.64;101640.34;5090400;28;19947;-62
2021/10/11 10:42:27;;;;;;;;;;;;;;;25.29;33.40;101631.91;5089159;28;20657;-64
2021/10/11 10:44:54;;;;;;;;;;;;;;;25.42;33.08;101632.31;5084051;28;19924;-63
2021/10/11 10:47:31;;;;;;;;;;;;;;;25.47;32.95;101636.34;5089826;28;19924;-68
2021/10/11 10:49:58;;;;;;;;;;;;;;;25.49;32.75;101635.19;5089953;28;19924;-59
2021/10/11 10:52:24;;;;;;;;;;;;;;;25.61;32.53;101633.06;5089936;28;19935;-60
2021/10/11 10:55:00;;;;;;;;;;;;;;;25.63;32.37;101627.50;5089876;28;19930;-59
2021/10/11 10:57:29;;;;;;;;;;;;;;;25.78;32.12;101638.47;5089478;28;19924;-62
2021/10/11 11:00:00;;;;;;;;;;;;;;;25.72;32.18;101618.44;5089888;28;19977;-64
2021/10/11 11:02:28;;;;;;;;;;;;;;;25.79;32.19;101627.53;5081262;28;20042;-60
2021/10/11 11:05:03;;;;;;;;;;;;;;;25.94;31.72;101616.97;5079107;28;19965;-63
2021/10/11 11:07:31;;;;;;;;;;;;;;;25.97;31.54;101615.78;5089321;28;19924;-65
2021/10/11 11:09:59;;;;;;;;;;;;;;;26.01;31.64;101617.94;5089522;28;19931;-60
2021/10/11 11:12:32;;;;;;;;;;;;;;;26.17;31.01;101618.97;5089034;28;19928;-59
2021/10/11 11:14:59;;;;;;;;;;;;;;;26.26;30.62;101614.44;5088645;28;20336;-60
2021/10/11 11:17:36;;;;;;;;;;;;;;;26.33;30.54;101613.59;5086070;28;19927;-59
2021/10/11 11:20:10;;;;;;;;;;;;;;;26.30;30.78;101605.88;5088244;28;19928;-59
2021/10/11 11:22:36;;;;;;;;;;;;;;;26.37;30.58;101604.19;5089293;28;19925;-59
2021/10/11 11:25:06;;;;;;;;;;;;;;;26.50;30.42;101595.59;5089134;28;19924;-65
2021/10/11 11:27:33;;;;;;;;;;;;;;;26.64;30.18;101591.34;5080022;28;19932;-61
2021/10/11 11:30:20;;;;;;;;;;;;;;;26.64;30.07;101585.09;5088943;28;19928;-59
2021/10/11 11:32:52;;;;;;;;;;;;;;;26.73;29.54;101581.41;5080802;28;19927;-60
2021/10/11 11:35:20;;;;;;;;;;;;;;;26.85;29.16;101573.78;5081134;28;20295;-59
2021/10/11 11:37:48;;;;;;;;;;;;;;;26.85;29.22;101571.09;5087631;28;19985;-60
2021/10/11 11:40:17;;;;;;;;;;;;;;;26.85;28.77;101569.22;5088957;28;19985;-60
2021/10/11 11:42:47;;;;;;;;;;;;;;;27.00;28.65;101563.13;5088857;28;19928;-60
2021/10/11 11:45:15;;;;;;;;;;;;;;;26.95;28.34;101560.94;5088911;28;20356;-60
2021/10/11 11:47:41;;;;;;;;;;;;;;;27.09;27.98;101562.06;5073852;28;20027;-60
2021/10/11 11:50:24;;;;;;;;;;;;;;;27.16;27.79;101563.03;5072680;28;19924;-60
2021/10/11 11:53:04;;;;;;;;;;;;;;;27.24;27.86;101561.34;5072754;28;19924;-62
2021/10/11 11:55:32;;;;;;;;;;;;;;;27.33;27.64;101561.06;5071277;28;19924;-59
2021/10/11 11:57:59;;;;;;;;;;;;;;;27.37;27.55;101558.88;5072247;28;19985;-59
2021/10/11 12:00:30;;;;;;;;;;;;;;;27.37;27.49;101551.63;5082927;28;19924;-58
2021/10/11 12:02:57;;;;;;;;;;;;;;;27.43;27.59;101541.19;5087805;28;19957;-64
2021/10/11 12:05:25;;;;;;;;;;;;;;;27.52;27.72;101534.72;5081790;28;20403;-60
2021/10/11 12:07:52;;;;;;;;;;;;;;;27.59;27.73;101529.44;5087991;28;19950;-62
2021/10/11 12:10:20;;;;;;;;;;;;;;;27.61;27.75;101524.72;5088265;28;20311;-61
2021/10/11 12:12:47;;;;;;;;;;;;;;;27.65;27.93;101520.63;5088181;28;20355;-60
2021/10/11 12:15:18;;;;;;;;;;;;;;;27.76;27.94;101519.38;5088975;28;19935;-59
2021/10/11 12:17:45;;;;;;;;;;;;;;;27.72;28.03;101521.59;5088864;28;19950;-60
2021/10/11 12:20:11;;;;;;;;;;;;;;;27.76;27.79;101519.38;5088625;28;19924;-59
2021/10/11 12:22:38;;;;;;;;;;;;;;;27.73;28.01;101520.56;5078678;28;19924;-60
2021/10/11 12:25:07;;;;;;;;;;;;;;;27.81;27.88;101515.09;5088870;28;20015;-58
2021/10/11 12:27:34;;;;;;;;;;;;;;;27.84;27.48;101517.41;5088486;28;19971;-59
2021/10/11 12:30:05;;;;;;;;;;;;;;;27.83;27.35;101520.28;5088742;28;20265;-59
2021/10/11 12:32:33;;;;;;;;;;;;;;;27.74;27.34;101507.91;5088766;28;19924;-59
2021/10/11 12:35:00;;;;;;;;;;;;;;;27.80;27.30;101507.19;5088708;28;19934;-64
2021/10/11 12:37:37;;;;;;;;;;;;;;;27.81;27.21;101509.69;5088048;28;20395;-63